createdAt,value
2019-03-31T00:04:59.113Z,24.87
2019-03-31T00:10:04.022Z,24.63
2019-03-31T00:15:09.228Z,25.50
2019-03-31T00:20:14.507Z,24.47
2019-03-31T00:25:19.301Z,24.70
2019-03-31T00:30:24.557Z,23.02
2019-03-31T00:35:29.313Z,23.00
2019-03-31T00:40:34.106Z,21.70
2019-03-31T00:45:39.049Z,21.60
2019-03-31T00:50:43.830Z,19.98
2019-03-31T00:55:48.600Z,20.05
2019-03-31T01:01:13.710Z,20.43
2019-03-31T01:06:20.631Z,19.50
2019-03-31T01:11:27.004Z,19.67
2019-03-31T01:16:33.394Z,20.48
2019-03-31T01:21:38.161Z,20.52
2019-03-31T01:26:43.290Z,19.55
2019-03-31T01:31:50.501Z,20.55
2019-03-31T01:36:55.126Z,20.32
2019-03-31T01:42:00.054Z,20.40
2019-03-31T01:47:06.782Z,20.80
2019-03-31T01:52:11.922Z,22.22
2019-03-31T01:57:16.786Z,22.15
2019-03-31T02:02:27.462Z,22.27
2019-03-31T02:07:32.232Z,21.70
2019-03-31T02:12:37.231Z,23.32
2019-03-31T02:17:42.044Z,23.70
2019-03-31T02:22:46.924Z,22.83
2019-03-31T02:27:51.845Z,24.30
2019-03-31T02:32:56.742Z,24.40
2019-03-31T02:38:01.673Z,25.00
2019-03-31T02:43:06.490Z,25.17
2019-03-31T02:48:11.876Z,25.83
2019-03-31T02:53:18.500Z,25.90
2019-03-31T02:58:23.280Z,27.50
2019-03-31T03:03:30.571Z,28.03
2019-03-31T03:08:37.061Z,25.73
2019-03-31T03:13:43.660Z,27.07
2019-03-31T03:18:49.308Z,27.90
2019-03-31T03:23:54.097Z,27.97
2019-03-31T03:28:58.911Z,27.50
2019-03-31T03:34:03.727Z,28.57
2019-03-31T03:39:09.237Z,28.80
2019-03-31T03:44:14.340Z,30.50
2019-03-31T03:49:19.402Z,29.50
2019-03-31T03:54:24.244Z,30.47
2019-03-31T03:59:29.040Z,31.00
2019-03-31T04:04:33.788Z,30.00
2019-03-31T04:09:38.568Z,31.17
2019-03-31T04:14:43.349Z,32.37
2019-03-31T04:19:48.108Z,32.27
2019-03-31T04:24:53.728Z,32.13
2019-03-31T04:29:58.516Z,35.10
2019-03-31T04:35:03.308Z,34.90
2019-03-31T04:40:08.208Z,35.60
2019-03-31T04:45:12.982Z,34.03
2019-03-31T04:50:18.081Z,33.73
2019-03-31T04:55:22.903Z,34.77
2019-03-31T05:00:27.683Z,37.07
2019-03-31T05:05:32.566Z,37.43
2019-03-31T05:10:37.676Z,37.00
2019-03-31T05:15:42.455Z,36.37
2019-03-31T05:20:47.237Z,37.40
2019-03-31T05:25:52.117Z,37.67
2019-03-31T05:30:56.980Z,38.80
2019-03-31T05:36:01.751Z,38.60
2019-03-31T05:41:06.887Z,39.57
2019-03-31T05:46:11.834Z,38.60
2019-03-31T05:51:16.604Z,39.30
2019-03-31T05:56:21.420Z,38.83
2019-03-31T06:01:26.222Z,34.10
2019-03-31T06:06:31.087Z,33.80
2019-03-31T06:11:35.952Z,34.17
2019-03-31T06:16:40.683Z,34.73
2019-03-31T06:21:45.550Z,31.67
2019-03-31T06:26:50.316Z,28.63
2019-03-31T06:31:55.079Z,28.87
2019-03-31T06:36:59.857Z,29.33
2019-03-31T06:42:04.635Z,29.33
2019-03-31T06:47:09.518Z,30.17
2019-03-31T06:52:14.287Z,30.33
2019-03-31T06:57:19.046Z,29.80
2019-03-31T07:02:23.811Z,26.13
2019-03-31T07:07:28.680Z,24.83
2019-03-31T07:12:33.550Z,21.53
2019-03-31T07:17:38.552Z,20.70
2019-03-31T07:22:43.302Z,16.97
2019-03-31T07:27:48.208Z,13.47
2019-03-31T07:32:52.972Z,13.67
2019-03-31T07:37:58.096Z,13.13
2019-03-31T07:43:03.342Z,14.87
2019-03-31T07:48:08.405Z,13.80
2019-03-31T07:53:13.169Z,14.27
2019-03-31T07:58:17.954Z,11.07
2019-03-31T08:03:27.909Z,15.23
2019-03-31T08:08:32.676Z,16.10
2019-03-31T08:13:39.229Z,16.03
2019-03-31T08:18:47.172Z,17.83
2019-03-31T08:23:52.539Z,16.03
2019-03-31T08:28:58.664Z,16.47
2019-03-31T08:34:03.816Z,15.13
2019-03-31T08:39:09.750Z,14.07
2019-03-31T08:44:14.519Z,10.83
2019-03-31T08:49:19.292Z,12.23
2019-03-31T08:54:24.069Z,11.87
2019-03-31T08:59:28.830Z,12.20
2019-03-31T09:04:35.943Z,12.93
2019-03-31T09:09:40.455Z,13.40
2019-03-31T09:14:45.239Z,13.10
2019-03-31T09:19:50.337Z,13.83
2019-03-31T09:24:55.124Z,13.63
2019-03-31T09:29:59.934Z,12.83
2019-03-31T09:35:05.337Z,12.90
2019-03-31T09:40:11.978Z,12.17
2019-03-31T09:45:19.208Z,12.90
2019-03-31T09:50:23.958Z,13.93
2019-03-31T09:55:28.768Z,11.97
2019-03-31T10:00:48.147Z,10.33
2019-03-31T10:05:53.062Z,10.00
2019-03-31T10:10:57.980Z,10.03
2019-03-31T10:16:03.021Z,9.97
2019-03-31T10:21:07.971Z,10.50
2019-03-31T10:26:15.972Z,9.60
2019-03-31T10:31:19.560Z,10.43
2019-03-31T10:36:24.510Z,8.50
2019-03-31T10:41:31.097Z,8.43
2019-03-31T10:46:35.911Z,9.07
2019-03-31T10:51:41.190Z,8.50
2019-03-31T10:56:46.038Z,8.00
2019-03-31T11:01:50.812Z,7.42
2019-03-31T11:06:59.583Z,6.78
2019-03-31T11:12:02.652Z,7.08
2019-03-31T11:17:07.880Z,6.75
2019-03-31T11:22:37.741Z,5.65
2019-03-31T11:27:43.976Z,12.53
2019-03-31T11:32:48.882Z,6.28
2019-03-31T11:37:53.658Z,7.20
2019-03-31T11:42:58.453Z,6.92
2019-03-31T11:48:03.216Z,6.45
2019-03-31T11:53:08.010Z,6.75
2019-03-31T11:58:12.833Z,5.95
2019-03-31T12:03:17.738Z,5.45
2019-03-31T12:08:22.551Z,5.15
2019-03-31T12:13:27.333Z,4.80
2019-03-31T12:18:32.113Z,4.47
2019-03-31T12:23:37.011Z,3.95
2019-03-31T12:28:41.794Z,2.47
2019-03-31T12:33:46.594Z,2.70
2019-03-31T12:38:53.886Z,2.15
2019-03-31T12:43:58.247Z,1.60
2019-03-31T12:49:03.032Z,1.70
2019-03-31T12:54:07.815Z,1.62
2019-03-31T12:59:12.594Z,1.82
2019-03-31T13:04:17.368Z,6.60
2019-03-31T13:09:22.154Z,1.87
2019-03-31T13:14:27.021Z,1.57
2019-03-31T13:19:31.817Z,2.40
2019-03-31T13:24:36.590Z,2.10
2019-03-31T13:29:41.601Z,1.60
2019-03-31T13:34:46.420Z,1.70
2019-03-31T13:39:51.186Z,1.50
2019-03-31T13:44:55.980Z,1.70
2019-03-31T13:50:00.758Z,2.00
2019-03-31T13:55:06.022Z,1.90
2019-03-31T14:00:12.471Z,1.90
2019-03-31T14:05:18.034Z,2.10
2019-03-31T14:10:24.218Z,1.77
2019-03-31T14:15:28.986Z,1.90
2019-03-31T14:20:33.859Z,1.82
2019-03-31T14:25:38.636Z,2.60
2019-03-31T14:30:43.413Z,2.00
2019-03-31T14:35:48.205Z,1.85
2019-03-31T14:40:52.957Z,1.85
2019-03-31T14:45:57.742Z,2.45
2019-03-31T14:51:02.744Z,2.40
2019-03-31T14:56:07.552Z,2.20
2019-03-31T15:01:12.442Z,1.77
2019-03-31T15:06:17.246Z,2.17
2019-03-31T15:11:23.151Z,1.47
2019-03-31T15:16:28.216Z,1.47
2019-03-31T15:21:33.383Z,1.60
2019-03-31T15:26:38.162Z,1.47
2019-03-31T15:31:43.082Z,1.75
2019-03-31T15:36:47.895Z,1.55
2019-03-31T15:41:52.772Z,1.52
2019-03-31T15:46:57.559Z,1.40
2019-03-31T15:52:02.363Z,1.22
2019-03-31T15:57:07.147Z,1.45
2019-03-31T16:02:11.904Z,1.60
2019-03-31T16:07:16.725Z,1.35
2019-03-31T16:12:20.971Z,1.40
2019-03-31T16:17:25.258Z,1.50
2019-03-31T16:22:29.540Z,3.33
2019-03-31T16:27:33.803Z,1.90
2019-03-31T16:32:38.073Z,1.32
2019-03-31T16:37:42.307Z,1.57
2019-03-31T16:42:46.704Z,1.65
2019-03-31T16:47:50.985Z,1.90
2019-03-31T16:52:55.250Z,1.57
2019-03-31T16:57:59.802Z,2.10
2019-03-31T17:03:04.066Z,1.50
2019-03-31T17:08:08.317Z,2.00
2019-03-31T17:13:12.559Z,1.87
2019-03-31T17:18:16.841Z,1.83
2019-03-31T17:23:21.127Z,2.53
2019-03-31T17:28:25.394Z,2.00
2019-03-31T17:33:30.380Z,2.00
2019-03-31T17:38:34.797Z,3.00
2019-03-31T17:43:39.089Z,2.70
2019-03-31T17:48:43.425Z,2.37
2019-03-31T17:53:47.723Z,2.40
2019-03-31T17:58:52.044Z,2.10
2019-03-31T18:03:56.411Z,2.40
2019-03-31T18:09:00.669Z,2.17
2019-03-31T18:14:06.818Z,2.50
2019-03-31T18:19:11.233Z,2.20
2019-03-31T18:24:15.644Z,2.43
2019-03-31T18:29:20.783Z,2.67
2019-03-31T18:34:25.139Z,2.80
2019-03-31T18:39:29.745Z,2.80
2019-03-31T18:44:34.200Z,2.70
2019-03-31T18:49:39.865Z,2.53
2019-03-31T18:55:06.591Z,2.30
2019-03-31T19:00:39.690Z,4.33
2019-03-31T19:06:05.406Z,3.33
2019-03-31T19:11:32.007Z,2.70
2019-03-31T19:17:07.437Z,2.97
2019-03-31T19:22:37.105Z,3.00
2019-03-31T19:27:59.799Z,2.67
2019-03-31T19:33:23.384Z,3.77
2019-03-31T19:38:51.094Z,2.73
2019-03-31T19:44:02.779Z,2.40
2019-03-31T19:49:13.380Z,2.90
2019-03-31T19:54:35.749Z,2.50
2019-03-31T19:59:59.574Z,2.77
2019-03-31T20:05:23.100Z,2.63
2019-03-31T20:10:46.587Z,2.40
2019-03-31T20:16:08.655Z,3.10
2019-03-31T20:21:31.388Z,2.30
2019-03-31T20:26:42.998Z,2.43
2019-03-31T20:32:02.732Z,2.53
2019-03-31T20:37:32.172Z,2.70
2019-03-31T20:42:58.310Z,2.80
2019-03-31T20:48:02.602Z,2.73
2019-03-31T20:53:06.900Z,2.60
2019-03-31T20:58:11.423Z,2.50
2019-03-31T21:03:15.870Z,2.47
2019-03-31T21:08:20.283Z,2.40
2019-03-31T21:13:24.636Z,2.07
2019-03-31T21:18:28.904Z,2.60
2019-03-31T21:23:33.330Z,2.40
2019-03-31T21:28:37.616Z,2.27
2019-03-31T21:33:41.985Z,1.73
2019-03-31T21:38:46.225Z,1.70
2019-03-31T21:43:50.865Z,1.70
2019-03-31T21:48:55.098Z,1.80
2019-03-31T21:53:59.319Z,2.37
2019-03-31T21:59:03.546Z,2.17
2019-03-31T22:04:07.907Z,2.33
2019-03-31T22:09:12.400Z,2.27
2019-03-31T22:14:16.781Z,2.23
2019-03-31T22:19:21.217Z,4.90
2019-03-31T22:24:25.666Z,2.10
2019-03-31T22:29:30.101Z,3.13
2019-03-31T22:34:34.353Z,2.30
2019-03-31T22:39:38.565Z,2.20
2019-03-31T22:44:42.824Z,2.20
2019-03-31T22:49:47.239Z,2.60
2019-03-31T22:54:51.520Z,1.73
2019-03-31T22:59:55.738Z,2.40
2019-03-31T23:04:59.963Z,2.00
2019-03-31T23:10:04.573Z,2.90
2019-03-31T23:15:08.909Z,3.20
2019-03-31T23:20:13.135Z,2.30
2019-03-31T23:25:17.365Z,1.90
2019-03-31T23:30:21.588Z,2.13
2019-03-31T23:35:25.808Z,2.23
2019-03-31T23:40:30.044Z,2.43
2019-03-31T23:45:34.665Z,1.90
2019-03-31T23:50:38.886Z,2.10
2019-03-31T23:55:43.132Z,2.50
